sensor_id;sensor_type;location;lat;lon;timestamp;P1;durP1;ratioP1;P2;durP2;ratioP2
57567;SDS011;43403;51.948;5.922;2022-12-10T00:01:32;44.67;;;20.73;;
57567;SDS011;43403;51.948;5.922;2022-12-10T00:04:00;41.58;;;20.58;;
57567;SDS011;43403;51.948;5.922;2022-12-10T00:06:28;42.70;;;20.70;;
57567;SDS011;43403;51.948;5.922;2022-12-10T00:08:56;49.20;;;22.65;;
57567;SDS011;43403;51.948;5.922;2022-12-10T00:11:24;47.10;;;20.63;;
57567;SDS011;43403;51.948;5.922;2022-12-10T00:13:51;46.42;;;21.90;;
57567;SDS011;43403;51.948;5.922;2022-12-10T00:16:19;47.22;;;23.25;;
57567;SDS011;43403;51.948;5.922;2022-12-10T00:18:47;50.38;;;22.38;;
57567;SDS011;43403;51.948;5.922;2022-12-10T00:21:14;45.25;;;20.73;;
57567;SDS011;43403;51.948;5.922;2022-12-10T00:23:44;50.35;;;21.48;;
57567;SDS011;43403;51.948;5.922;2022-12-10T00:26:12;50.85;;;21.63;;
57567;SDS011;43403;51.948;5.922;2022-12-10T00:28:39;49.05;;;21.30;;
57567;SDS011;43403;51.948;5.922;2022-12-10T00:31:07;48.42;;;22.95;;
57567;SDS011;43403;51.948;5.922;2022-12-10T00:33:35;50.35;;;22.77;;
57567;SDS011;43403;51.948;5.922;2022-12-10T00:36:04;41.97;;;20.58;;
57567;SDS011;43403;51.948;5.922;2022-12-10T00:38:32;46.22;;;21.33;;
57567;SDS011;43403;51.948;5.922;2022-12-10T00:40:59;46.95;;;20.10;;
57567;SDS011;43403;51.948;5.922;2022-12-10T00:43:26;45.13;;;21.35;;
57567;SDS011;43403;51.948;5.922;2022-12-10T00:45:53;48.42;;;21.80;;
57567;SDS011;43403;51.948;5.922;2022-12-10T00:48:20;47.50;;;21.65;;
57567;SDS011;43403;51.948;5.922;2022-12-10T00:50:57;45.10;;;21.90;;
57567;SDS011;43403;51.948;5.922;2022-12-10T00:53:26;50.03;;;20.83;;
57567;SDS011;43403;51.948;5.922;2022-12-10T00:55:55;46.80;;;20.90;;
57567;SDS011;43403;51.948;5.922;2022-12-10T00:58:21;47.17;;;21.23;;
57567;SDS011;43403;51.948;5.922;2022-12-10T01:00:48;47.85;;;20.73;;
57567;SDS011;43403;51.948;5.922;2022-12-10T01:03:15;49.17;;;22.15;;
57567;SDS011;43403;51.948;5.922;2022-12-10T01:05:41;46.70;;;21.23;;
57567;SDS011;43403;51.948;5.922;2022-12-10T01:08:08;49.33;;;21.08;;
57567;SDS011;43403;51.948;5.922;2022-12-10T01:10:34;44.65;;;21.23;;
57567;SDS011;43403;51.948;5.922;2022-12-10T01:13:03;48.42;;;21.60;;
57567;SDS011;43403;51.948;5.922;2022-12-10T01:15:29;48.85;;;21.25;;
57567;SDS011;43403;51.948;5.922;2022-12-10T01:17:56;48.47;;;22.15;;
57567;SDS011;43403;51.948;5.922;2022-12-10T01:20:22;49.08;;;21.27;;
57567;SDS011;43403;51.948;5.922;2022-12-10T01:22:49;47.05;;;20.98;;
57567;SDS011;43403;51.948;5.922;2022-12-10T01:25:15;45.28;;;21.20;;
57567;SDS011;43403;51.948;5.922;2022-12-10T01:27:42;46.97;;;20.63;;
57567;SDS011;43403;51.948;5.922;2022-12-10T01:30:08;51.67;;;22.15;;
57567;SDS011;43403;51.948;5.922;2022-12-10T01:32:36;47.63;;;20.52;;
57567;SDS011;43403;51.948;5.922;2022-12-10T01:35:02;48.63;;;20.38;;
57567;SDS011;43403;51.948;5.922;2022-12-10T01:37:29;44.80;;;21.10;;
57567;SDS011;43403;51.948;5.922;2022-12-10T01:39:55;47.85;;;20.52;;
57567;SDS011;43403;51.948;5.922;2022-12-10T01:42:21;42.80;;;19.40;;
57567;SDS011;43403;51.948;5.922;2022-12-10T01:47:14;49.50;;;21.40;;
57567;SDS011;43403;51.948;5.922;2022-12-10T01:49:40;47.67;;;20.60;;
57567;SDS011;43403;51.948;5.922;2022-12-10T01:52:08;46.60;;;20.40;;
57567;SDS011;43403;51.948;5.922;2022-12-10T01:54:38;44.38;;;21.13;;
57567;SDS011;43403;51.948;5.922;2022-12-10T01:59:45;47.70;;;20.98;;
57567;SDS011;43403;51.948;5.922;2022-12-10T02:03:01;46.28;;;20.02;;
57567;SDS011;43403;51.948;5.922;2022-12-10T02:05:10;40.65;;;19.60;;
57567;SDS011;43403;51.948;5.922;2022-12-10T02:13:27;41.20;;;18.77;;
57567;SDS011;43403;51.948;5.922;2022-12-10T02:16:08;44.17;;;19.55;;
57567;SDS011;43403;51.948;5.922;2022-12-10T02:18:46;47.38;;;19.65;;
57567;SDS011;43403;51.948;5.922;2022-12-10T02:21:19;43.78;;;20.08;;
57567;SDS011;43403;51.948;5.922;2022-12-10T02:23:54;43.55;;;20.23;;
57567;SDS011;43403;51.948;5.922;2022-12-10T02:26:34;47.30;;;21.45;;
57567;SDS011;43403;51.948;5.922;2022-12-10T02:29:25;40.92;;;18.45;;
57567;SDS011;43403;51.948;5.922;2022-12-10T02:31:55;46.72;;;21.35;;
57567;SDS011;43403;51.948;5.922;2022-12-10T02:34:26;41.45;;;19.23;;
57567;SDS011;43403;51.948;5.922;2022-12-10T02:36:57;50.30;;;22.00;;
57567;SDS011;43403;51.948;5.922;2022-12-10T02:39:29;46.78;;;20.92;;
57567;SDS011;43403;51.948;5.922;2022-12-10T02:42:00;46.53;;;20.30;;
57567;SDS011;43403;51.948;5.922;2022-12-10T02:44:29;46.47;;;21.95;;
57567;SDS011;43403;51.948;5.922;2022-12-10T02:46:57;43.65;;;20.35;;
57567;SDS011;43403;51.948;5.922;2022-12-10T02:49:24;44.70;;;20.25;;
57567;SDS011;43403;51.948;5.922;2022-12-10T02:51:52;44.43;;;19.87;;
57567;SDS011;43403;51.948;5.922;2022-12-10T03:00:14;50.38;;;21.08;;
57567;SDS011;43403;51.948;5.922;2022-12-10T03:08:37;39.78;;;20.13;;
57567;SDS011;43403;51.948;5.922;2022-12-10T03:11:11;42.25;;;20.63;;
57567;SDS011;43403;51.948;5.922;2022-12-10T03:13:42;42.90;;;19.33;;
57567;SDS011;43403;51.948;5.922;2022-12-10T03:16:13;41.35;;;20.60;;
57567;SDS011;43403;51.948;5.922;2022-12-10T03:18:41;45.25;;;19.67;;
57567;SDS011;43403;51.948;5.922;2022-12-10T03:21:11;42.17;;;18.60;;
57567;SDS011;43403;51.948;5.922;2022-12-10T03:23:40;44.83;;;20.13;;
57567;SDS011;43403;51.948;5.922;2022-12-10T03:26:11;39.90;;;18.40;;
57567;SDS011;43403;51.948;5.922;2022-12-10T03:28:40;41.28;;;19.38;;
57567;SDS011;43403;51.948;5.922;2022-12-10T03:31:09;44.70;;;19.85;;
57567;SDS011;43403;51.948;5.922;2022-12-10T03:33:38;38.63;;;19.17;;
57567;SDS011;43403;51.948;5.922;2022-12-10T03:36:05;43.00;;;20.08;;
57567;SDS011;43403;51.948;5.922;2022-12-10T03:38:34;46.15;;;20.20;;
57567;SDS011;43403;51.948;5.922;2022-12-10T03:41:02;47.67;;;22.00;;
57567;SDS011;43403;51.948;5.922;2022-12-10T03:43:29;43.10;;;20.27;;
57567;SDS011;43403;51.948;5.922;2022-12-10T03:45:55;47.42;;;20.70;;
57567;SDS011;43403;51.948;5.922;2022-12-10T03:48:22;45.47;;;21.08;;
57567;SDS011;43403;51.948;5.922;2022-12-10T03:50:48;42.50;;;19.60;;
57567;SDS011;43403;51.948;5.922;2022-12-10T03:53:15;46.78;;;21.88;;
57567;SDS011;43403;51.948;5.922;2022-12-10T03:55:41;45.72;;;20.20;;
57567;SDS011;43403;51.948;5.922;2022-12-10T03:58:07;52.92;;;21.58;;
57567;SDS011;43403;51.948;5.922;2022-12-10T04:00:34;45.65;;;22.02;;
57567;SDS011;43403;51.948;5.922;2022-12-10T04:03:00;44.05;;;21.42;;
57567;SDS011;43403;51.948;5.922;2022-12-10T04:05:27;47.38;;;21.75;;
57567;SDS011;43403;51.948;5.922;2022-12-10T04:07:53;52.33;;;21.58;;
57567;SDS011;43403;51.948;5.922;2022-12-10T04:10:19;48.63;;;20.52;;
57567;SDS011;43403;51.948;5.922;2022-12-10T04:12:46;47.63;;;21.48;;
57567;SDS011;43403;51.948;5.922;2022-12-10T04:15:32;46.45;;;21.10;;
57567;SDS011;43403;51.948;5.922;2022-12-10T04:18:17;40.53;;;19.35;;
57567;SDS011;43403;51.948;5.922;2022-12-10T04:20:44;44.38;;;20.55;;
57567;SDS011;43403;51.948;5.922;2022-12-10T04:23:29;45.45;;;21.95;;
57567;SDS011;43403;51.948;5.922;2022-12-10T04:26:13;43.03;;;19.95;;
57567;SDS011;43403;51.948;5.922;2022-12-10T04:28:58;45.65;;;20.83;;
57567;SDS011;43403;51.948;5.922;2022-12-10T04:31:25;47.40;;;21.48;;
57567;SDS011;43403;51.948;5.922;2022-12-10T04:33:51;47.13;;;20.88;;
57567;SDS011;43403;51.948;5.922;2022-12-10T04:36:17;49.83;;;20.30;;
57567;SDS011;43403;51.948;5.922;2022-12-10T04:38:44;45.20;;;21.17;;
57567;SDS011;43403;51.948;5.922;2022-12-10T04:41:10;51.50;;;22.52;;
57567;SDS011;43403;51.948;5.922;2022-12-10T04:43:41;42.65;;;19.75;;
57567;SDS011;43403;51.948;5.922;2022-12-10T04:46:09;43.45;;;21.50;;
57567;SDS011;43403;51.948;5.922;2022-12-10T04:48:36;51.38;;;22.23;;
57567;SDS011;43403;51.948;5.922;2022-12-10T04:51:02;58.38;;;25.95;;
57567;SDS011;43403;51.948;5.922;2022-12-10T04:53:29;61.55;;;24.75;;
57567;SDS011;43403;51.948;5.922;2022-12-10T04:55:55;64.30;;;25.95;;
57567;SDS011;43403;51.948;5.922;2022-12-10T04:58:22;65.38;;;26.48;;
57567;SDS011;43403;51.948;5.922;2022-12-10T05:00:48;69.47;;;28.40;;
57567;SDS011;43403;51.948;5.922;2022-12-10T05:03:14;60.65;;;23.48;;
57567;SDS011;43403;51.948;5.922;2022-12-10T05:05:41;63.63;;;26.33;;
57567;SDS011;43403;51.948;5.922;2022-12-10T05:08:07;68.90;;;27.98;;
57567;SDS011;43403;51.948;5.922;2022-12-10T05:10:34;72.53;;;28.33;;
57567;SDS011;43403;51.948;5.922;2022-12-10T05:13:01;76.82;;;29.17;;
57567;SDS011;43403;51.948;5.922;2022-12-10T05:15:27;76.60;;;29.15;;
57567;SDS011;43403;51.948;5.922;2022-12-10T05:17:53;76.13;;;29.30;;
57567;SDS011;43403;51.948;5.922;2022-12-10T05:20:20;70.20;;;26.95;;
57567;SDS011;43403;51.948;5.922;2022-12-10T05:22:46;77.55;;;28.65;;
57567;SDS011;43403;51.948;5.922;2022-12-10T05:25:31;80.70;;;31.17;;
57567;SDS011;43403;51.948;5.922;2022-12-10T05:28:18;71.78;;;27.85;;
57567;SDS011;43403;51.948;5.922;2022-12-10T05:30:45;88.05;;;31.10;;
57567;SDS011;43403;51.948;5.922;2022-12-10T05:33:12;78.95;;;31.38;;
57567;SDS011;43403;51.948;5.922;2022-12-10T05:35:38;73.55;;;29.30;;
57567;SDS011;43403;51.948;5.922;2022-12-10T05:38:05;81.13;;;29.73;;
57567;SDS011;43403;51.948;5.922;2022-12-10T05:40:36;71.25;;;29.25;;
57567;SDS011;43403;51.948;5.922;2022-12-10T05:43:03;77.35;;;30.20;;
57567;SDS011;43403;51.948;5.922;2022-12-10T05:45:31;85.10;;;31.42;;
57567;SDS011;43403;51.948;5.922;2022-12-10T05:47:58;133.95;;;33.72;;
57567;SDS011;43403;51.948;5.922;2022-12-10T05:50:24;79.75;;;29.63;;
57567;SDS011;43403;51.948;5.922;2022-12-10T05:52:51;94.97;;;31.13;;
57567;SDS011;43403;51.948;5.922;2022-12-10T05:55:17;78.50;;;29.83;;
57567;SDS011;43403;51.948;5.922;2022-12-10T05:57:43;76.57;;;29.63;;
57567;SDS011;43403;51.948;5.922;2022-12-10T06:00:10;123.60;;;29.98;;
57567;SDS011;43403;51.948;5.922;2022-12-10T06:02:37;79.97;;;28.70;;
57567;SDS011;43403;51.948;5.922;2022-12-10T06:05:03;100.40;;;30.75;;
57567;SDS011;43403;51.948;5.922;2022-12-10T06:07:30;275.40;;;28.52;;
57567;SDS011;43403;51.948;5.922;2022-12-10T06:09:56;150.57;;;29.23;;
57567;SDS011;43403;51.948;5.922;2022-12-10T06:12:22;122.93;;;30.00;;
57567;SDS011;43403;51.948;5.922;2022-12-10T06:14:49;137.23;;;29.55;;
57567;SDS011;43403;51.948;5.922;2022-12-10T06:17:15;120.03;;;28.65;;
57567;SDS011;43403;51.948;5.922;2022-12-10T06:19:42;100.30;;;30.05;;
57567;SDS011;43403;51.948;5.922;2022-12-10T06:22:08;172.82;;;31.63;;
57567;SDS011;43403;51.948;5.922;2022-12-10T06:24:34;136.82;;;30.40;;
57567;SDS011;43403;51.948;5.922;2022-12-10T06:27:01;110.18;;;29.42;;
57567;SDS011;43403;51.948;5.922;2022-12-10T06:29:28;118.28;;;30.40;;
57567;SDS011;43403;51.948;5.922;2022-12-10T06:31:54;149.43;;;29.77;;
57567;SDS011;43403;51.948;5.922;2022-12-10T06:34:20;118.97;;;28.90;;
57567;SDS011;43403;51.948;5.922;2022-12-10T06:36:47;156.27;;;28.67;;
57567;SDS011;43403;51.948;5.922;2022-12-10T06:39:13;285.17;;;30.08;;
57567;SDS011;43403;51.948;5.922;2022-12-10T06:41:40;299.15;;;29.65;;
57567;SDS011;43403;51.948;5.922;2022-12-10T06:44:10;150.40;;;28.77;;
57567;SDS011;43403;51.948;5.922;2022-12-10T06:46:36;165.13;;;29.40;;
57567;SDS011;43403;51.948;5.922;2022-12-10T06:49:03;97.70;;;28.17;;
57567;SDS011;43403;51.948;5.922;2022-12-10T06:51:29;183.85;;;28.52;;
57567;SDS011;43403;51.948;5.922;2022-12-10T06:53:56;134.43;;;28.95;;
57567;SDS011;43403;51.948;5.922;2022-12-10T06:56:23;126.60;;;30.40;;
57567;SDS011;43403;51.948;5.922;2022-12-10T06:58:49;154.25;;;30.52;;
57567;SDS011;43403;51.948;5.922;2022-12-10T07:03:50;195.30;;;26.40;;
57567;SDS011;43403;51.948;5.922;2022-12-10T07:06:21;184.23;;;28.38;;
57567;SDS011;43403;51.948;5.922;2022-12-10T07:08:49;113.07;;;25.67;;
57567;SDS011;43403;51.948;5.922;2022-12-10T07:11:17;125.93;;;28.38;;
57567;SDS011;43403;51.948;5.922;2022-12-10T07:13:45;206.15;;;26.02;;
57567;SDS011;43403;51.948;5.922;2022-12-10T07:16:16;198.20;;;28.20;;
57567;SDS011;43403;51.948;5.922;2022-12-10T07:18:47;143.73;;;28.58;;
57567;SDS011;43403;51.948;5.922;2022-12-10T07:23:51;157.50;;;29.20;;
57567;SDS011;43403;51.948;5.922;2022-12-10T07:26:19;108.05;;;28.40;;
57567;SDS011;43403;51.948;5.922;2022-12-10T07:28:46;114.05;;;26.80;;
57567;SDS011;43403;51.948;5.922;2022-12-10T07:31:19;108.13;;;28.95;;
57567;SDS011;43403;51.948;5.922;2022-12-10T07:33:46;163.00;;;28.63;;
57567;SDS011;43403;51.948;5.922;2022-12-10T07:36:13;153.70;;;31.60;;
57567;SDS011;43403;51.948;5.922;2022-12-10T07:38:40;117.63;;;29.58;;
57567;SDS011;43403;51.948;5.922;2022-12-10T07:41:08;113.07;;;28.83;;
57567;SDS011;43403;51.948;5.922;2022-12-10T07:43:37;99.10;;;30.00;;
57567;SDS011;43403;51.948;5.922;2022-12-10T07:46:09;85.18;;;28.27;;
57567;SDS011;43403;51.948;5.922;2022-12-10T07:48:38;103.28;;;29.38;;
57567;SDS011;43403;51.948;5.922;2022-12-10T07:51:06;149.18;;;31.13;;
57567;SDS011;43403;51.948;5.922;2022-12-10T07:53:33;86.13;;;25.13;;
57567;SDS011;43403;51.948;5.922;2022-12-10T07:55:59;92.13;;;28.10;;
57567;SDS011;43403;51.948;5.922;2022-12-10T07:58:26;89.97;;;28.17;;
57567;SDS011;43403;51.948;5.922;2022-12-10T08:00:53;89.85;;;27.70;;
57567;SDS011;43403;51.948;5.922;2022-12-10T08:03:19;83.28;;;28.67;;
57567;SDS011;43403;51.948;5.922;2022-12-10T08:05:46;80.72;;;26.73;;
57567;SDS011;43403;51.948;5.922;2022-12-10T08:08:12;93.28;;;26.67;;
57567;SDS011;43403;51.948;5.922;2022-12-10T08:10:39;80.38;;;26.80;;
57567;SDS011;43403;51.948;5.922;2022-12-10T08:13:06;75.93;;;26.60;;
57567;SDS011;43403;51.948;5.922;2022-12-10T08:15:32;77.07;;;27.52;;
57567;SDS011;43403;51.948;5.922;2022-12-10T08:17:59;133.65;;;30.52;;
57567;SDS011;43403;51.948;5.922;2022-12-10T08:20:25;95.95;;;29.15;;
57567;SDS011;43403;51.948;5.922;2022-12-10T08:22:51;80.68;;;27.08;;
57567;SDS011;43403;51.948;5.922;2022-12-10T08:25:18;83.13;;;27.45;;
57567;SDS011;43403;51.948;5.922;2022-12-10T08:27:44;91.47;;;26.70;;
57567;SDS011;43403;51.948;5.922;2022-12-10T08:30:10;96.68;;;30.45;;
57567;SDS011;43403;51.948;5.922;2022-12-10T08:32:37;118.68;;;29.80;;
57567;SDS011;43403;51.948;5.922;2022-12-10T08:35:04;113.50;;;28.95;;
57567;SDS011;43403;51.948;5.922;2022-12-10T08:37:30;93.63;;;28.13;;
57567;SDS011;43403;51.948;5.922;2022-12-10T08:39:57;86.13;;;26.20;;
57567;SDS011;43403;51.948;5.922;2022-12-10T08:42:23;83.25;;;27.85;;
57567;SDS011;43403;51.948;5.922;2022-12-10T08:44:49;88.85;;;29.02;;
57567;SDS011;43403;51.948;5.922;2022-12-10T08:47:16;108.75;;;30.85;;
57567;SDS011;43403;51.948;5.922;2022-12-10T08:49:42;76.70;;;26.83;;
57567;SDS011;43403;51.948;5.922;2022-12-10T08:52:09;79.97;;;26.77;;
57567;SDS011;43403;51.948;5.922;2022-12-10T08:54:35;80.13;;;26.77;;
57567;SDS011;43403;51.948;5.922;2022-12-10T08:57:01;77.18;;;26.08;;
57567;SDS011;43403;51.948;5.922;2022-12-10T08:59:28;79.05;;;25.55;;
57567;SDS011;43403;51.948;5.922;2022-12-10T09:01:54;54.78;;;21.65;;
57567;SDS011;43403;51.948;5.922;2022-12-10T09:04:22;69.20;;;25.85;;
57567;SDS011;43403;51.948;5.922;2022-12-10T09:06:49;81.22;;;26.98;;
57567;SDS011;43403;51.948;5.922;2022-12-10T09:09:16;95.40;;;29.50;;
57567;SDS011;43403;51.948;5.922;2022-12-10T09:11:42;95.25;;;29.08;;
57567;SDS011;43403;51.948;5.922;2022-12-10T09:14:11;113.35;;;24.17;;
57567;SDS011;43403;51.948;5.922;2022-12-10T09:16:38;111.07;;;27.83;;
57567;SDS011;43403;51.948;5.922;2022-12-10T09:19:05;88.07;;;25.88;;
57567;SDS011;43403;51.948;5.922;2022-12-10T09:21:32;76.93;;;24.42;;
57567;SDS011;43403;51.948;5.922;2022-12-10T09:23:58;73.60;;;23.73;;
57567;SDS011;43403;51.948;5.922;2022-12-10T09:26:25;68.93;;;24.90;;
57567;SDS011;43403;51.948;5.922;2022-12-10T09:28:52;66.60;;;22.65;;
57567;SDS011;43403;51.948;5.922;2022-12-10T09:31:19;65.18;;;21.50;;
57567;SDS011;43403;51.948;5.922;2022-12-10T09:33:47;77.75;;;26.85;;
57567;SDS011;43403;51.948;5.922;2022-12-10T09:38:42;99.18;;;26.83;;
57567;SDS011;43403;51.948;5.922;2022-12-10T09:43:50;82.72;;;25.13;;
57567;SDS011;43403;51.948;5.922;2022-12-10T09:51:47;72.72;;;24.45;;
57567;SDS011;43403;51.948;5.922;2022-12-10T09:54:22;79.85;;;25.70;;
57567;SDS011;43403;51.948;5.922;2022-12-10T09:56:52;63.85;;;23.17;;
57567;SDS011;43403;51.948;5.922;2022-12-10T10:02:03;73.63;;;24.08;;
57567;SDS011;43403;51.948;5.922;2022-12-10T10:04:45;83.00;;;26.15;;
57567;SDS011;43403;51.948;5.922;2022-12-10T10:07:16;73.68;;;25.35;;
57567;SDS011;43403;51.948;5.922;2022-12-10T10:09:47;87.88;;;26.95;;
57567;SDS011;43403;51.948;5.922;2022-12-10T10:12:14;72.88;;;24.13;;
57567;SDS011;43403;51.948;5.922;2022-12-10T10:14:42;80.82;;;27.13;;
57567;SDS011;43403;51.948;5.922;2022-12-10T10:17:18;79.70;;;25.70;;
57567;SDS011;43403;51.948;5.922;2022-12-10T10:19:54;81.65;;;26.40;;
57567;SDS011;43403;51.948;5.922;2022-12-10T10:22:21;85.72;;;27.27;;
57567;SDS011;43403;51.948;5.922;2022-12-10T10:24:47;101.07;;;28.40;;
57567;SDS011;43403;51.948;5.922;2022-12-10T10:27:15;86.50;;;26.88;;
57567;SDS011;43403;51.948;5.922;2022-12-10T10:29:44;75.88;;;24.13;;
57567;SDS011;43403;51.948;5.922;2022-12-10T10:34:44;92.72;;;30.02;;
57567;SDS011;43403;51.948;5.922;2022-12-10T10:37:23;80.68;;;25.52;;
57567;SDS011;43403;51.948;5.922;2022-12-10T10:39:54;83.40;;;27.13;;
57567;SDS011;43403;51.948;5.922;2022-12-10T10:42:27;87.33;;;26.67;;
57567;SDS011;43403;51.948;5.922;2022-12-10T10:44:57;79.70;;;25.85;;
57567;SDS011;43403;51.948;5.922;2022-12-10T10:47:34;83.18;;;27.27;;
57567;SDS011;43403;51.948;5.922;2022-12-10T10:50:03;91.57;;;26.67;;
57567;SDS011;43403;51.948;5.922;2022-12-10T10:52:35;79.57;;;26.53;;
57567;SDS011;43403;51.948;5.922;2022-12-10T10:55:03;82.88;;;26.38;;
57567;SDS011;43403;51.948;5.922;2022-12-10T10:57:34;91.70;;;28.73;;
57567;SDS011;43403;51.948;5.922;2022-12-10T11:00:07;89.78;;;26.92;;
57567;SDS011;43403;51.948;5.922;2022-12-10T11:02:40;86.55;;;27.08;;
57567;SDS011;43403;51.948;5.922;2022-12-10T11:05:29;81.55;;;25.58;;
57567;SDS011;43403;51.948;5.922;2022-12-10T11:08:03;93.32;;;28.17;;
57567;SDS011;43403;51.948;5.922;2022-12-10T11:10:31;99.60;;;24.92;;
57567;SDS011;43403;51.948;5.922;2022-12-10T11:15:31;92.82;;;27.60;;
57567;SDS011;43403;51.948;5.922;2022-12-10T11:17:58;132.45;;;27.80;;
57567;SDS011;43403;51.948;5.922;2022-12-10T11:23:08;108.05;;;28.92;;
57567;SDS011;43403;51.948;5.922;2022-12-10T11:28:06;110.38;;;28.55;;
57567;SDS011;43403;51.948;5.922;2022-12-10T11:31:01;103.93;;;26.63;;
57567;SDS011;43403;51.948;5.922;2022-12-10T11:48:10;76.70;;;25.38;;
57567;SDS011;43403;51.948;5.922;2022-12-10T11:50:53;87.38;;;26.77;;
57567;SDS011;43403;51.948;5.922;2022-12-10T11:53:47;107.75;;;26.85;;
57567;SDS011;43403;51.948;5.922;2022-12-10T11:56:23;107.75;;;26.38;;
57567;SDS011;43403;51.948;5.922;2022-12-10T11:58:57;86.15;;;26.20;;
57567;SDS011;43403;51.948;5.922;2022-12-10T12:06:44;77.22;;;24.10;;
57567;SDS011;43403;51.948;5.922;2022-12-10T12:09:51;71.93;;;23.67;;
57567;SDS011;43403;51.948;5.922;2022-12-10T12:15:16;94.90;;;24.75;;
57567;SDS011;43403;51.948;5.922;2022-12-10T12:20:53;69.95;;;22.17;;
57567;SDS011;43403;51.948;5.922;2022-12-10T12:23:29;83.40;;;24.17;;
57567;SDS011;43403;51.948;5.922;2022-12-10T12:26:04;75.97;;;22.85;;
57567;SDS011;43403;51.948;5.922;2022-12-10T12:28:40;72.32;;;23.77;;
57567;SDS011;43403;51.948;5.922;2022-12-10T12:31:20;85.88;;;22.55;;
57567;SDS011;43403;51.948;5.922;2022-12-10T12:33:51;71.35;;;23.17;;
57567;SDS011;43403;51.948;5.922;2022-12-10T12:36:32;57.38;;;20.17;;
57567;SDS011;43403;51.948;5.922;2022-12-10T12:39:02;72.30;;;20.42;;
57567;SDS011;43403;51.948;5.922;2022-12-10T12:41:44;74.10;;;21.25;;
57567;SDS011;43403;51.948;5.922;2022-12-10T12:46:47;77.82;;;22.30;;
57567;SDS011;43403;51.948;5.922;2022-12-10T12:49:21;68.20;;;18.55;;
57567;SDS011;43403;51.948;5.922;2022-12-10T12:52:17;70.65;;;21.83;;
57567;SDS011;43403;51.948;5.922;2022-12-10T12:54:53;67.93;;;21.73;;
57567;SDS011;43403;51.948;5.922;2022-12-10T12:57:33;94.28;;;24.05;;
57567;SDS011;43403;51.948;5.922;2022-12-10T13:00:14;93.10;;;24.55;;
57567;SDS011;43403;51.948;5.922;2022-12-10T13:02:45;74.00;;;22.95;;
57567;SDS011;43403;51.948;5.922;2022-12-10T13:10:44;62.17;;;20.85;;
57567;SDS011;43403;51.948;5.922;2022-12-10T13:13:23;66.40;;;19.40;;
57567;SDS011;43403;51.948;5.922;2022-12-10T13:22:00;67.63;;;22.60;;
57567;SDS011;43403;51.948;5.922;2022-12-10T13:32:24;94.30;;;23.50;;
57567;SDS011;43403;51.948;5.922;2022-12-10T13:37:36;77.88;;;22.42;;
57567;SDS011;43403;51.948;5.922;2022-12-10T13:42:45;110.35;;;21.90;;
57567;SDS011;43403;51.948;5.922;2022-12-10T13:45:37;156.70;;;21.02;;
57567;SDS011;43403;51.948;5.922;2022-12-10T13:51:12;94.38;;;20.25;;
57567;SDS011;43403;51.948;5.922;2022-12-10T13:56:39;142.38;;;22.88;;
57567;SDS011;43403;51.948;5.922;2022-12-10T14:02:00;98.45;;;23.70;;
57567;SDS011;43403;51.948;5.922;2022-12-10T14:07:38;71.65;;;20.35;;
57567;SDS011;43403;51.948;5.922;2022-12-10T14:10:13;65.50;;;19.20;;
57567;SDS011;43403;51.948;5.922;2022-12-10T14:12:42;74.50;;;18.85;;
57567;SDS011;43403;51.948;5.922;2022-12-10T14:15:21;99.47;;;21.75;;
57567;SDS011;43403;51.948;5.922;2022-12-10T14:20:23;85.25;;;18.40;;
57567;SDS011;43403;51.948;5.922;2022-12-10T14:22:51;94.72;;;20.35;;
57567;SDS011;43403;51.948;5.922;2022-12-10T14:25:21;86.78;;;22.25;;
57567;SDS011;43403;51.948;5.922;2022-12-10T14:27:50;79.47;;;19.45;;
57567;SDS011;43403;51.948;5.922;2022-12-10T14:30:21;119.03;;;21.85;;
57567;SDS011;43403;51.948;5.922;2022-12-10T14:32:50;109.60;;;22.33;;
57567;SDS011;43403;51.948;5.922;2022-12-10T14:35:22;118.50;;;21.30;;
57567;SDS011;43403;51.948;5.922;2022-12-10T14:37:51;188.40;;;21.75;;
57567;SDS011;43403;51.948;5.922;2022-12-10T14:40:24;97.45;;;24.15;;
57567;SDS011;43403;51.948;5.922;2022-12-10T14:43:06;91.25;;;22.73;;
57567;SDS011;43403;51.948;5.922;2022-12-10T14:45:45;124.10;;;21.67;;
57567;SDS011;43403;51.948;5.922;2022-12-10T14:48:17;92.25;;;20.83;;
57567;SDS011;43403;51.948;5.922;2022-12-10T14:50:44;74.80;;;18.25;;
57567;SDS011;43403;51.948;5.922;2022-12-10T14:53:46;75.95;;;14.38;;
57567;SDS011;43403;51.948;5.922;2022-12-10T14:56:05;105.70;;;19.48;;
57567;SDS011;43403;51.948;5.922;2022-12-10T14:58:41;86.28;;;19.45;;
57567;SDS011;43403;51.948;5.922;2022-12-10T15:01:17;93.85;;;19.45;;
57567;SDS011;43403;51.948;5.922;2022-12-10T15:03:51;59.53;;;19.33;;
57567;SDS011;43403;51.948;5.922;2022-12-10T15:06:19;80.68;;;19.73;;
57567;SDS011;43403;51.948;5.922;2022-12-10T15:08:46;62.70;;;20.20;;
57567;SDS011;43403;51.948;5.922;2022-12-10T15:11:15;74.77;;;18.90;;
57567;SDS011;43403;51.948;5.922;2022-12-10T15:13:48;82.40;;;21.35;;
57567;SDS011;43403;51.948;5.922;2022-12-10T15:16:19;66.22;;;19.50;;
57567;SDS011;43403;51.948;5.922;2022-12-10T15:19:06;56.40;;;17.90;;
57567;SDS011;43403;51.948;5.922;2022-12-10T15:21:42;59.67;;;19.10;;
57567;SDS011;43403;51.948;5.922;2022-12-10T15:24:15;58.85;;;19.13;;
57567;SDS011;43403;51.948;5.922;2022-12-10T15:26:43;52.65;;;18.00;;
57567;SDS011;43403;51.948;5.922;2022-12-10T15:31:58;72.15;;;18.98;;
57567;SDS011;43403;51.948;5.922;2022-12-10T15:34:27;77.22;;;19.08;;
57567;SDS011;43403;51.948;5.922;2022-12-10T15:36:56;152.43;;;18.10;;
57567;SDS011;43403;51.948;5.922;2022-12-10T15:39:32;45.72;;;15.65;;
57567;SDS011;43403;51.948;5.922;2022-12-10T15:42:07;63.33;;;17.02;;
57567;SDS011;43403;51.948;5.922;2022-12-10T15:49:40;50.97;;;15.20;;
57567;SDS011;43403;51.948;5.922;2022-12-10T15:52:14;43.63;;;15.45;;
57567;SDS011;43403;51.948;5.922;2022-12-10T15:54:43;50.42;;;15.52;;
57567;SDS011;43403;51.948;5.922;2022-12-10T15:59:37;48.83;;;15.65;;
57567;SDS011;43403;51.948;5.922;2022-12-10T16:02:03;51.60;;;15.38;;
57567;SDS011;43403;51.948;5.922;2022-12-10T16:04:48;46.15;;;15.27;;
57567;SDS011;43403;51.948;5.922;2022-12-10T16:07:14;80.85;;;16.80;;
57567;SDS011;43403;51.948;5.922;2022-12-10T16:09:42;40.92;;;15.63;;
57567;SDS011;43403;51.948;5.922;2022-12-10T16:12:12;81.55;;;16.45;;
57567;SDS011;43403;51.948;5.922;2022-12-10T16:14:45;59.83;;;16.25;;
57567;SDS011;43403;51.948;5.922;2022-12-10T16:17:15;63.28;;;16.33;;
57567;SDS011;43403;51.948;5.922;2022-12-10T16:19:42;81.85;;;16.73;;
57567;SDS011;43403;51.948;5.922;2022-12-10T16:22:09;68.82;;;15.95;;
57567;SDS011;43403;51.948;5.922;2022-12-10T16:24:36;58.83;;;17.75;;
57567;SDS011;43403;51.948;5.922;2022-12-10T16:27:13;72.03;;;17.65;;
57567;SDS011;43403;51.948;5.922;2022-12-10T16:29:41;95.57;;;19.35;;
57567;SDS011;43403;51.948;5.922;2022-12-10T16:32:09;76.97;;;17.83;;
57567;SDS011;43403;51.948;5.922;2022-12-10T16:34:36;67.32;;;16.13;;
57567;SDS011;43403;51.948;5.922;2022-12-10T16:37:03;123.93;;;18.88;;
57567;SDS011;43403;51.948;5.922;2022-12-10T16:39:31;53.78;;;19.75;;
57567;SDS011;43403;51.948;5.922;2022-12-10T16:41:58;54.50;;;17.30;;
57567;SDS011;43403;51.948;5.922;2022-12-10T16:44:24;91.75;;;19.63;;